Time;durP1;ratioP1;P1;durP2;ratioP2;P2;SDS_P1;SDS_P2;PMS_P1;PMS_P2;Temp;Humidity;BMP_temperature;BMP_pressure;BME280_temperature;BME280_humidity;BME280_pressure;Samples;Min_cycle;Max_cycle;Signal;HPM_P1;HPM_P2
2022/03/05 00:01:20;;;;;;;47.17;17.60;;;;;;;-2.58;86.19;99729.63;5041821;28;20041;-52
2022/03/05 00:03:45;;;;;;;48.88;18.63;;;;;;;-2.16;87.77;99729.13;5034634;28;20033;-53
2022/03/05 00:06:11;;;;;;;54.47;22.15;;;;;;;-1.67;91.73;99723.47;5030634;28;20056;-53
2022/03/05 00:08:36;;;;;;;39.92;15.88;;;;;;;-1.94;87.44;99727.88;5031149;28;20029;-53
2022/03/05 00:11:02;;;;;;;50.33;19.15;;;;;;;-2.09;85.49;99724.94;5034596;28;20067;-54
2022/03/05 00:13:27;;;;;;;50.08;16.38;;;;;;;-2.18;86.05;99723.19;5033748;28;20523;-54
2022/03/05 00:15:53;;;;;;;52.95;17.02;;;;;;;-2.30;86.13;99722.56;5040673;28;20133;-53
2022/03/05 00:18:18;;;;;;;53.10;19.17;;;;;;;-2.13;87.98;99718.31;5035274;28;20044;-53
2022/03/05 00:20:45;;;;;;;49.88;17.85;;;;;;;-2.24;87.30;99721.16;5035806;28;20056;-53
2022/03/05 00:23:11;;;;;;;48.97;17.25;;;;;;;-2.12;88.47;99713.88;5032918;28;20443;-53
2022/03/05 00:25:37;;;;;;;46.08;15.93;;;;;;;-2.12;88.24;99714.72;5036122;28;21027;-53
2022/03/05 00:28:02;;;;;;;40.42;15.35;;;;;;;-2.21;87.94;99726.09;5035486;28;20094;-52
2022/03/05 00:30:28;;;;;;;38.58;15.27;;;;;;;-2.36;87.55;99724.97;5030132;28;20459;-54
2022/03/05 00:32:53;;;;;;;56.50;17.77;;;;;;;-2.37;89.38;99726.78;5030118;28;20467;-51
2022/03/05 00:35:18;;;;;;;46.17;16.58;;;;;;;-2.32;87.93;99724.53;5036162;28;20479;-53
2022/03/05 00:37:44;;;;;;;47.72;17.13;;;;;;;-2.32;87.88;99723.69;5029618;28;20037;-51
2022/03/05 00:40:10;;;;;;;48.42;16.20;;;;;;;-2.26;87.70;99728.34;5028649;28;20029;-53
2022/03/05 00:42:35;;;;;;;51.10;16.52;;;;;;;-1.99;90.71;99730.94;5036617;28;20575;-54
2022/03/05 00:45:01;;;;;;;48.13;17.40;;;;;;;-2.43;87.35;99732.59;5042621;28;20573;-52
2022/03/05 00:47:26;;;;;;;50.35;19.15;;;;;;;-2.72;86.63;99730.94;5038074;28;20041;-54
2022/03/05 00:49:53;;;;;;;39.35;16.25;;;;;;;-2.93;86.92;99727.69;5037851;28;20043;-54
2022/03/05 00:52:18;;;;;;;48.00;16.52;;;;;;;-3.20;86.95;99728.47;5029258;28;20037;-53
2022/03/05 00:54:44;;;;;;;49.10;18.10;;;;;;;-3.03;90.25;99736.41;5036969;28;20034;-55
2022/03/05 00:57:09;;;;;;;45.53;16.33;;;;;;;-3.04;89.62;99733.94;5034602;28;20050;-54
2022/03/05 00:59:34;;;;;;;42.28;14.50;;;;;;;-3.26;87.75;99735.94;5034099;28;20033;-54
2022/03/05 01:02:00;;;;;;;44.70;16.25;;;;;;;-3.41;87.74;99734.72;5033767;28;20049;-54
2022/03/05 01:04:25;;;;;;;45.35;16.13;;;;;;;-3.51;87.58;99739.16;5037733;28;20033;-54
2022/03/05 01:06:51;;;;;;;40.63;15.07;;;;;;;-3.39;92.32;99738.03;5031976;28;20407;-51
2022/03/05 01:09:16;;;;;;;45.05;16.65;;;;;;;-3.44;89.75;99731.53;5033566;28;20033;-53
2022/03/05 01:11:41;;;;;;;44.22;15.18;;;;;;;-3.44;90.59;99735.00;5028846;28;20049;-51
2022/03/05 01:14:07;;;;;;;44.28;15.65;;;;;;;-3.55;89.08;99732.53;5036169;28;20139;-52
2022/03/05 01:16:34;;;;;;;48.53;15.00;;;;;;;-3.47;89.51;99727.41;5032008;28;20049;-54
2022/03/05 01:19:00;;;;;;;48.42;16.38;;;;;;;-3.33;90.15;99729.59;5034894;28;20419;-54
2022/03/05 01:21:25;;;;;;;59.28;21.33;;;;;;;-3.23;90.01;99723.50;5038564;28;20033;-53
2022/03/05 01:23:51;;;;;;;46.67;17.80;;;;;;;-3.07;91.68;99726.34;5034484;28;20482;-51
2022/03/05 01:26:16;;;;;;;53.08;19.30;;;;;;;-3.16;90.85;99722.78;5028992;28;20051;-54
2022/03/05 01:28:42;;;;;;;46.47;16.83;;;;;;;-3.39;89.60;99711.00;5030185;28;20392;-53
2022/03/05 01:31:07;;;;;;;50.67;15.90;;;;;;;-3.52;89.60;99714.75;5034236;28;20556;-51
2022/03/05 01:33:33;;;;;;;54.45;15.55;;;;;;;-3.63;89.47;99717.50;5035700;28;20643;-53
2022/03/05 01:35:58;;;;;;;51.55;16.77;;;;;;;-3.58;90.88;99711.84;5036056;28;20110;-53
2022/03/05 01:38:23;;;;;;;41.33;15.98;;;;;;;-3.58;90.86;99712.66;5035467;28;20055;-53
2022/03/05 01:40:51;;;;;;;39.63;14.20;;;;;;;-3.55;90.13;99708.94;5028493;28;20037;-51
2022/03/05 01:43:16;;;;;;;43.13;14.50;;;;;;;-3.69;89.32;99715.44;5029966;28;20016;-52
2022/03/05 01:45:42;;;;;;;51.35;15.57;;;;;;;-3.70;90.14;99711.97;5035961;28;20056;-52
2022/03/05 01:48:08;;;;;;;43.90;14.85;;;;;;;-3.85;89.69;99717.78;5041261;28;20039;-53
2022/03/05 01:50:33;;;;;;;42.42;14.27;;;;;;;-3.96;89.86;99713.50;5035508;28;20491;-53
2022/03/05 01:52:59;;;;;;;40.28;13.50;;;;;;;-3.88;90.83;99718.88;5028626;28;20052;-53
2022/03/05 01:55:24;;;;;;;46.95;15.02;;;;;;;-3.91;90.79;99717.38;5030639;28;20485;-53
2022/03/05 01:57:50;;;;;;;48.88;16.30;;;;;;;-3.92;90.98;99713.09;5032542;28;20067;-53
2022/03/05 02:00:15;;;;;;;44.70;14.30;;;;;;;-3.90;91.31;99720.81;5028526;28;20033;-51
2022/03/05 02:02:41;;;;;;;42.10;15.43;;;;;;;-3.86;92.24;99721.38;5028498;28;20473;-52
2022/03/05 02:05:09;;;;;;;48.00;15.82;;;;;;;-3.93;91.57;99715.84;5032418;28;20036;-52
2022/03/05 02:07:34;;;;;;;46.55;15.13;;;;;;;-3.83;92.60;99715.84;5038185;28;20410;-52
2022/03/05 02:10:00;;;;;;;38.88;13.30;;;;;;;-3.94;91.96;99719.44;5042043;28;20519;-53
2022/03/05 02:12:29;;;;;;;41.85;14.15;;;;;;;-3.97;92.00;99714.47;5042154;28;20396;-53
2022/03/05 02:14:54;;;;;;;43.75;14.73;;;;;;;-3.85;92.46;99707.31;5041657;28;20463;-50
2022/03/05 02:17:19;;;;;;;46.90;14.77;;;;;;;-3.61;92.01;99710.31;5038150;27;20045;-50
2022/03/05 02:19:45;;;;;;;46.92;14.93;;;;;;;-3.69;91.14;99708.41;5040932;28;20029;-53
2022/03/05 02:22:10;;;;;;;51.00;16.02;;;;;;;-3.75;91.40;99710.75;5037209;28;20521;-53
2022/03/05 02:24:40;;;;;;;49.38;15.10;;;;;;;-3.93;90.99;99708.00;5036803;28;20419;-51
2022/03/05 02:27:05;;;;;;;44.63;14.15;;;;;;;-3.64;93.48;99704.53;5035243;28;20045;-53
2022/03/05 02:29:31;;;;;;;47.33;13.70;;;;;;;-3.58;95.71;99698.75;5042542;28;20435;-51
2022/03/05 02:31:57;;;;;;;47.47;15.82;;;;;;;-3.58;95.28;99709.22;5039749;28;20038;-53
2022/03/05 02:34:22;;;;;;;52.78;16.30;;;;;;;-3.67;93.34;99710.03;5034680;28;20476;-53
2022/03/05 02:36:49;;;;;;;44.22;15.40;;;;;;;-3.84;92.23;99704.56;5034401;28;20543;-53
2022/03/05 02:39:15;;;;;;;47.65;15.82;;;;;;;-4.06;91.76;99694.34;5035429;28;20104;-51
2022/03/05 02:41:40;;;;;;;38.35;14.25;;;;;;;-4.15;92.49;99696.81;5034776;28;20451;-53
2022/03/05 02:44:05;;;;;;;49.50;16.75;;;;;;;-4.13;92.88;99704.53;5040006;28;20029;-53
2022/03/05 02:46:33;;;;;;;46.60;15.35;;;;;;;-4.12;92.80;99695.72;5040850;28;20392;-51
2022/03/05 02:48:59;;;;;;;43.45;14.13;;;;;;;-4.03;94.47;99694.88;5040939;28;20508;-51
2022/03/05 02:51:24;;;;;;;42.08;13.82;;;;;;;-4.18;92.95;99697.09;5039459;28;20026;-52
2022/03/05 02:53:49;;;;;;;51.60;15.60;;;;;;;-4.08;94.38;99701.50;5037959;28;20049;-52
2022/03/05 02:56:16;;;;;;;41.53;15.50;;;;;;;-4.15;93.54;99703.84;5033354;28;20045;-51
2022/03/05 02:58:41;;;;;;;45.83;14.57;;;;;;;-4.22;93.32;99706.19;5021806;28;20037;-51
2022/03/05 03:01:08;;;;;;;50.17;14.98;;;;;;;-4.03;95.51;99709.78;5037901;28;20075;-53
2022/03/05 03:03:34;;;;;;;60.67;18.70;;;;;;;-3.83;96.57;99706.19;5039382;28;20518;-53
2022/03/05 03:06:00;;;;;;;52.80;16.45;;;;;;;-3.44;97.06;99706.16;5037897;28;20041;-54
2022/03/05 03:08:25;;;;;;;42.35;14.68;;;;;;;-3.70;94.19;99701.50;5036466;28;20083;-53
2022/03/05 03:10:51;;;;;;;52.25;13.93;;;;;;;-4.03;91.97;99705.38;5037354;28;20119;-50
2022/03/05 03:13:16;;;;;;;44.20;15.73;;;;;;;-4.38;90.31;99703.25;5039964;28;20450;-53
2022/03/05 03:15:42;;;;;;;43.05;14.57;;;;;;;-4.62;90.69;99699.22;5040268;28;20496;-52
2022/03/05 03:18:07;;;;;;;40.05;14.75;;;;;;;-4.76;91.49;99696.97;5032254;28;20029;-52
2022/03/05 03:20:33;;;;;;;42.75;13.70;;;;;;;-4.68;93.84;99699.75;5038984;28;20446;-51
2022/03/05 03:22:58;;;;;;;36.03;13.38;;;;;;;-4.43;95.87;99697.59;5037841;28;20025;-51
2022/03/05 03:25:23;;;;;;;44.28;15.32;;;;;;;-4.49;94.46;99698.13;5036634;28;20045;-52
2022/03/05 03:27:49;;;;;;;47.33;15.30;;;;;;;-4.66;93.21;99700.44;5030261;28;20107;-50
2022/03/05 03:30:15;;;;;;;43.30;14.40;;;;;;;-4.73;93.41;99701.09;5030694;28;20387;-54
2022/03/05 03:32:40;;;;;;;44.42;15.75;;;;;;;-4.83;93.91;99698.47;5030283;28;20033;-53
2022/03/05 03:35:07;;;;;;;43.30;13.55;;;;;;;-4.69;95.52;99703.31;5036539;28;20251;-52
2022/03/05 03:37:33;;;;;;;47.55;16.80;;;;;;;-4.65;95.29;99709.94;5035864;28;20028;-52
2022/03/05 03:39:59;;;;;;;45.75;16.20;;;;;;;-4.62;95.35;99708.84;5032196;28;20124;-52
2022/03/05 03:42:27;;;;;;;49.03;15.77;;;;;;;-4.65;94.94;99711.72;5036129;28;20095;-51
2022/03/05 03:44:52;;;;;;;45.90;13.20;;;;;;;-4.53;94.36;99708.03;5041208;28;20183;-53
2022/03/05 03:47:18;;;;;;;45.80;15.65;;;;;;;-4.57;94.69;99715.34;5035127;28;20435;-52
2022/03/05 03:49:43;;;;;;;42.80;14.18;;;;;;;-4.49;95.69;99719.06;5036791;28;20029;-49
2022/03/05 03:52:09;;;;;;;42.60;14.30;;;;;;;-4.72;93.61;99721.88;5030147;28;20048;-54
2022/03/05 03:54:34;;;;;;;49.08;15.93;;;;;;;-4.84;93.70;99720.31;5037634;28;20415;-54
2022/03/05 03:56:59;;;;;;;42.08;14.65;;;;;;;-4.70;94.96;99712.13;5033527;28;20051;-52
2022/03/05 03:59:25;;;;;;;41.95;13.43;;;;;;;-4.71;95.21;99715.72;5034162;28;20040;-54
2022/03/05 04:01:50;;;;;;;35.70;13.75;;;;;;;-4.76;95.03;99712.66;5034968;28;20041;-53
2022/03/05 04:04:16;;;;;;;38.08;13.68;;;;;;;-4.74;95.42;99715.97;5038321;28;20033;-54
2022/03/05 04:09:32;;;;;;;50.28;13.10;;;;;;;-4.73;97.16;99719.41;5020749;28;20045;-55
2022/03/05 04:11:58;;;;;;;46.88;14.80;;;;;;;-4.81;96.25;99723.50;5030622;28;20519;-54
2022/03/05 04:14:23;;;;;;;49.95;15.30;;;;;;;-4.83;96.42;99727.22;5038540;28;20519;-51
2022/03/05 04:16:49;;;;;;;45.22;15.63;;;;;;;-4.48;98.77;99720.72;5033732;28;20041;-53
2022/03/05 04:19:14;;;;;;;53.92;18.52;;;;;;;-4.33;97.71;99722.00;5037142;28;20025;-53
2022/03/05 04:21:39;;;;;;;57.13;16.92;;;;;;;-4.10;99.72;99717.34;5036162;28;20044;-52
2022/03/05 04:24:05;;;;;;;48.20;15.80;;;;;;;-4.31;97.72;99720.09;5032663;28;20602;-52
2022/03/05 04:26:30;;;;;;;51.17;15.57;;;;;;;-4.69;95.12;99724.25;5023444;28;20124;-51
2022/03/05 04:28:56;;;;;;;46.00;15.43;;;;;;;-4.86;94.88;99720.47;5036759;28;20036;-52
2022/03/05 04:31:21;;;;;;;40.03;15.13;;;;;;;-4.97;95.80;99724.94;5036249;28;20061;-53
2022/03/05 04:33:47;;;;;;;58.17;19.25;;;;;;;-4.56;99.80;99724.00;5032444;28;20527;-54
2022/03/05 04:36:12;;;;;;;50.00;15.77;;;;;;;-4.55;98.84;99721.25;5037154;28;20045;-52
2022/03/05 04:38:37;;;;;;;50.10;15.30;;;;;;;-4.71;96.87;99725.34;5034644;28;20429;-54
2022/03/05 04:41:03;;;;;;;49.15;16.02;;;;;;;-4.70;97.12;99722.56;5030582;28;20452;-53
2022/03/05 04:43:28;;;;;;;39.92;14.65;;;;;;;-4.82;96.78;99726.25;5041114;28;20040;-53
2022/03/05 04:45:54;;;;;;;45.53;14.77;;;;;;;-4.99;96.18;99727.72;5040447;28;20456;-54
2022/03/05 04:48:19;;;;;;;59.95;24.85;;;;;;;-5.01;96.35;99729.63;5032382;28;20025;-54
2022/03/05 04:50:48;;;;;;;43.42;15.68;;;;;;;-4.91;97.49;99729.66;5034188;28;20439;-54
2022/03/05 04:53:14;;;;;;;47.45;18.38;;;;;;;-4.88;97.72;99729.41;5041929;28;20017;-55
2022/03/05 04:55:39;;;;;;;48.53;16.77;;;;;;;-4.96;97.28;99735.28;5040056;28;20049;-52
2022/03/05 04:58:05;;;;;;;49.67;14.75;;;;;;;-5.00;97.15;99732.09;5045319;28;20124;-54
2022/03/05 05:00:30;;;;;;;47.88;15.48;;;;;;;-4.94;97.78;99733.38;5028206;28;20034;-52
2022/03/05 05:02:56;;;;;;;52.17;16.35;;;;;;;-4.95;97.73;99738.72;5031878;28;20060;-54
2022/03/05 05:05:21;;;;;;;45.13;15.15;;;;;;;-5.26;95.33;99736.91;5028475;28;20045;-54
2022/03/05 05:07:47;;;;;;;44.20;16.13;;;;;;;-4.87;98.11;99741.50;5045438;28;20128;-54
2022/03/05 05:10:12;;;;;;;45.70;15.20;;;;;;;-4.78;99.31;99744.16;5035418;28;20021;-53
2022/03/05 05:12:37;;;;;;;51.58;15.57;;;;;;;-4.69;99.63;99747.78;5029891;28;20546;-54
2022/03/05 05:15:03;;;;;;;52.08;17.20;;;;;;;-4.83;97.79;99745.53;5031093;28;20020;-52
2022/03/05 05:17:34;;;;;;;59.20;17.00;;;;;;;-4.73;98.54;99743.78;5036646;28;20048;-53
2022/03/05 05:19:59;;;;;;;;;;;;;;;-4.71;98.29;99751.50;5034031;28;20028;-54
2022/03/05 05:22:25;;;;;;;42.40;15.20;;;;;;;-4.56;98.13;99755.41;5030144;28;19951;-54
2022/03/05 05:24:50;;;;;;;49.45;16.13;;;;;;;-4.67;97.83;99755.50;5035424;28;20033;-54
2022/03/05 05:27:16;;;;;;;58.63;16.88;;;;;;;-4.77;97.96;99752.84;5027881;28;20040;-54
2022/03/05 05:29:41;;;;;;;61.38;15.98;;;;;;;-4.99;97.63;99753.84;5027576;28;20468;-60
2022/03/05 05:32:10;;;;;;;54.10;17.23;;;;;;;-4.42;100.00;99768.13;5028993;28;20048;-51
2022/03/05 05:34:35;;;;;;;54.88;16.75;;;;;;;-4.55;100.00;99762.28;5029507;28;20036;-52
2022/03/05 05:37:01;;;;;;;52.67;16.52;;;;;;;-4.84;98.45;99770.00;5029436;28;20136;-50
2022/03/05 05:39:26;;;;;;;55.88;16.92;;;;;;;-4.87;98.68;99765.88;5028279;28;20025;-52
2022/03/05 05:41:52;;;;;;;48.33;17.00;;;;;;;-5.18;97.69;99753.75;5034446;28;20411;-51
2022/03/05 05:44:17;;;;;;;58.63;18.45;;;;;;;-4.94;99.34;99756.91;5037819;28;20050;-54
2022/03/05 05:46:43;;;;;;;63.33;18.77;;;;;;;-4.94;99.39;99759.53;5034372;28;20060;-52
2022/03/05 05:49:08;;;;;;;47.55;15.85;;;;;;;-4.97;99.32;99769.41;5039149;28;20368;-54
2022/03/05 05:51:34;;;;;;;41.90;14.85;;;;;;;-5.07;99.50;99772.78;5034365;28;20049;-54
2022/03/05 05:54:00;;;;;;;60.83;18.40;;;;;;;-5.18;98.52;99769.44;5041199;28;20059;-53
2022/03/05 05:56:25;;;;;;;53.53;17.38;;;;;;;-5.39;97.65;99772.88;5034674;28;20191;-54
2022/03/05 05:58:50;;;;;;;55.22;15.93;;;;;;;-5.32;97.45;99767.94;5038698;28;20033;-52
2022/03/05 06:01:17;;;;;;;48.25;15.35;;;;;;;-5.29;97.79;99789.44;5029410;28;20033;-54
2022/03/05 06:03:44;;;;;;;54.78;18.10;;;;;;;-4.84;100.00;99793.53;5033121;28;20037;-53
2022/03/05 06:06:10;;;;;;;46.40;17.00;;;;;;;-4.97;98.54;99790.31;5035980;28;20041;-53
2022/03/05 06:08:36;;;;;;;65.70;19.80;;;;;;;-4.84;99.71;99789.16;5030151;28;20044;-54
2022/03/05 06:11:01;;;;;;;54.88;17.42;;;;;;;-4.93;98.12;99789.09;5032137;28;20037;-53
2022/03/05 06:13:26;;;;;;;95.22;29.27;;;;;;;-4.71;99.13;99793.34;5032062;28;20025;-54
2022/03/05 06:15:52;;;;;;;59.75;19.88;;;;;;;-4.70;98.09;99795.81;5030221;28;20052;-55
2022/03/05 06:18:17;;;;;;;53.25;16.13;;;;;;;-4.86;96.29;99790.25;5033588;28;20379;-54
2022/03/05 06:20:43;;;;;;;56.70;17.33;;;;;;;-4.81;97.00;99794.13;5028183;28;20518;-53
2022/03/05 06:23:08;;;;;;;47.25;15.68;;;;;;;-4.59;97.58;99789.69;5032665;28;20034;-52
2022/03/05 06:25:33;;;;;;;49.60;15.70;;;;;;;-4.60;96.30;99788.00;5033649;28;20397;-53
2022/03/05 06:27:59;;;;;;;61.55;19.00;;;;;;;-4.29;99.35;99788.84;5032586;28;20388;-54
2022/03/05 06:30:24;;;;;;;78.00;24.67;;;;;;;-4.34;98.78;99791.03;5033559;28;20044;-52
2022/03/05 06:32:50;;;;;;;87.88;27.27;;;;;;;-4.51;94.60;99795.09;5035537;28;20033;-51
2022/03/05 06:35:15;;;;;;;62.03;19.75;;;;;;;-4.30;94.64;99787.16;5027161;28;20033;-53
2022/03/05 06:37:41;;;;;;;62.10;17.23;;;;;;;-4.33;92.29;99795.28;5032010;28;20025;-51
2022/03/05 06:40:06;;;;;;;50.88;16.15;;;;;;;-4.16;91.28;99802.50;5029789;28;20026;-52
2022/03/05 06:42:32;;;;;;;50.17;16.98;;;;;;;-3.13;88.87;99808.22;5034050;28;20021;-54
2022/03/05 06:44:57;;;;;;;47.28;15.98;;;;;;;-1.87;80.92;99801.66;5031709;28;20463;-53
2022/03/05 06:47:23;;;;;;;45.22;16.65;;;;;;;-2.33;78.48;99800.81;5032886;28;20483;-53
2022/03/05 06:49:48;;;;;;;46.85;16.75;;;;;;;-2.66;81.16;99806.44;5035880;28;20395;-53
2022/03/05 06:52:15;;;;;;;49.47;16.77;;;;;;;-2.36;81.96;99801.09;5028606;28;20044;-54
2022/03/05 06:54:41;;;;;;;46.88;16.42;;;;;;;-0.55;77.45;99804.34;5037974;28;20139;-53
2022/03/05 06:57:06;;;;;;;54.95;19.77;;;;;;;0.57;70.72;99801.38;5035145;28;20037;-54
2022/03/05 06:59:32;;;;;;;49.20;16.00;;;;;;;1.55;66.46;99807.56;5034178;28;20033;-55
2022/03/05 07:01:57;;;;;;;48.75;17.08;;;;;;;1.98;63.60;99800.97;5019150;28;20053;-54
2022/03/05 07:04:22;;;;;;;44.35;17.05;;;;;;;2.35;62.21;99805.56;5038430;28;20027;-52
2022/03/05 07:06:48;;;;;;;51.58;16.98;;;;;;;2.19;61.38;99802.97;5046463;28;20040;-54
2022/03/05 07:09:14;;;;;;;50.47;16.77;;;;;;;1.62;62.12;99797.94;5041944;28;20447;-55
2022/03/05 07:11:39;;;;;;;43.72;17.40;;;;;;;1.08;65.44;99809.97;5031827;28;20041;-54
2022/03/05 07:14:05;;;;;;;56.38;18.42;;;;;;;0.69;67.82;99812.44;5032271;28;20033;-52
2022/03/05 07:16:30;;;;;;;56.35;19.52;;;;;;;0.62;69.13;99807.03;5035299;28;20041;-54
2022/03/05 07:18:56;;;;;;;53.83;19.67;;;;;;;0.74;68.55;99823.34;5029589;28;20049;-52
2022/03/05 07:21:22;;;;;;;62.10;20.30;;;;;;;2.11;64.03;99818.91;5033039;28;20061;-51
2022/03/05 07:23:47;;;;;;;50.83;20.20;;;;;;;2.38;60.96;99821.06;5037098;28;20118;-53
2022/03/05 07:26:13;;;;;;;65.10;21.90;;;;;;;3.13;58.22;99816.03;5029658;28;20721;-54
2022/03/05 07:28:38;;;;;;;59.05;22.08;;;;;;;1.54;63.99;99822.59;5036296;28;20079;-53
2022/03/05 07:31:03;;;;;;;64.55;21.90;;;;;;;2.18;62.79;99817.22;5031532;28;20041;-53
2022/03/05 07:33:29;;;;;;;58.78;22.05;;;;;;;2.03;63.19;99821.59;5038893;28;20083;-52
2022/03/05 07:35:54;;;;;;;65.78;24.20;;;;;;;1.44;62.85;99829.88;5033137;28;20042;-54
2022/03/05 07:38:20;;;;;;;69.55;24.05;;;;;;;1.89;62.80;99828.41;5035183;28;20025;-53
2022/03/05 07:40:45;;;;;;;74.40;24.33;;;;;;;2.20;61.59;99831.09;5031920;28;20499;-54
2022/03/05 07:43:12;;;;;;;63.55;23.55;;;;;;;2.29;60.69;99827.38;5037419;28;20037;-54
2022/03/05 07:45:38;;;;;;;67.60;23.48;;;;;;;1.99;62.55;99826.38;5035609;28;20075;-53
2022/03/05 07:48:03;;;;;;;83.50;23.25;;;;;;;2.44;62.55;99831.94;5039940;28;20021;-56
2022/03/05 07:50:29;;;;;;;65.53;22.98;;;;;;;2.65;62.14;99836.63;5033132;28;20065;-55
2022/03/05 07:52:54;;;;;;;70.95;24.00;;;;;;;3.37;60.00;99836.16;5030598;28;20025;-55
2022/03/05 07:55:20;;;;;;;70.00;24.77;;;;;;;2.85;62.56;99834.31;5037368;28;20456;-52
2022/03/05 07:57:46;;;;;;;73.07;26.45;;;;;;;2.81;62.85;99834.66;5034890;28;20036;-56
2022/03/05 08:00:11;;;;;;;76.93;27.50;;;;;;;3.58;61.32;99832.81;5029518;28;20025;-54
2022/03/05 08:02:37;;;;;;;74.65;25.48;;;;;;;3.80;59.77;99834.56;5033560;28;20033;-55
2022/03/05 08:05:02;;;;;;;65.45;22.83;;;;;;;4.40;57.32;99840.59;5038920;28;20025;-53
2022/03/05 08:07:28;;;;;;;66.20;22.45;;;;;;;3.91;58.57;99838.56;5038404;28;20036;-55
2022/03/05 08:09:53;;;;;;;76.03;24.02;;;;;;;3.64;58.55;99846.19;5033688;28;20033;-55
2022/03/05 08:12:18;;;;;;;74.05;24.75;;;;;;;4.42;57.11;99843.88;5047264;28;20041;-54
2022/03/05 08:14:44;;;;;;;79.03;25.88;;;;;;;3.84;57.73;99837.66;5033356;28;20387;-54
2022/03/05 08:17:14;;;;;;;73.97;26.05;;;;;;;3.65;59.25;99844.34;5031318;28;20064;-54
2022/03/05 08:19:39;;;;;;;71.07;26.38;;;;;;;4.67;56.74;99843.53;5040776;28;20055;-52
2022/03/05 08:22:05;;;;;;;68.43;25.42;;;;;;;5.14;55.92;99845.59;5034400;28;20817;-54
2022/03/05 08:24:30;;;;;;;72.45;25.60;;;;;;;4.88;57.44;99843.53;5031430;28;20018;-51
2022/03/05 08:26:56;;;;;;;71.43;25.35;;;;;;;4.72;56.07;99843.78;5030320;28;20458;-54
2022/03/05 08:29:21;;;;;;;75.68;25.20;;;;;;;4.40;56.96;99840.59;5030934;28;20072;-54
2022/03/05 08:31:47;;;;;;;73.50;26.55;;;;;;;4.63;57.32;99843.06;5030117;28;20049;-54
2022/03/05 08:34:12;;;;;;;82.47;24.60;;;;;;;4.26;57.74;99844.91;5039162;28;20021;-53
2022/03/05 08:36:37;;;;;;;71.90;24.00;;;;;;;4.54;59.32;99845.03;5031632;28;20049;-54
2022/03/05 08:39:03;;;;;;;71.25;25.10;;;;;;;4.91;57.94;99853.75;5037758;28;20388;-54
2022/03/05 08:41:28;;;;;;;74.47;25.15;;;;;;;5.37;56.64;99858.66;5039213;28;20423;-54
2022/03/05 08:43:53;;;;;;;66.15;25.23;;;;;;;5.66;55.13;99858.66;5030929;28;20048;-55
2022/03/05 08:46:19;;;;;;;69.22;24.55;;;;;;;5.60;55.30;99849.63;5033960;28;20034;-54
2022/03/05 08:48:44;;;;;;;75.07;24.27;;;;;;;5.46;54.73;99855.84;5028805;28;20029;-53
2022/03/05 08:51:10;;;;;;;65.13;23.58;;;;;;;4.98;56.53;99849.34;5038433;28;20517;-54
2022/03/05 08:53:35;;;;;;;68.93;22.23;;;;;;;5.13;56.28;99851.09;5040262;28;20024;-51
2022/03/05 08:56:01;;;;;;;76.53;24.10;;;;;;;6.19;55.05;99859.78;5031575;28;20585;-52
2022/03/05 08:58:26;;;;;;;67.53;22.85;;;;;;;5.93;54.41;99856.97;5041678;28;20025;-54
2022/03/05 09:00:52;;;;;;;68.20;23.45;;;;;;;5.43;55.52;99857.06;5033797;28;20033;-51
2022/03/05 09:03:17;;;;;;;67.57;23.73;;;;;;;5.50;56.98;99857.13;5029102;28;20038;-54
2022/03/05 09:05:43;;;;;;;75.60;24.65;;;;;;;6.68;53.04;99850.72;5032902;28;20029;-53
2022/03/05 09:08:09;;;;;;;63.72;23.40;;;;;;;6.43;54.54;99847.78;5029980;28;20044;-53
2022/03/05 09:10:34;;;;;;;69.45;23.77;;;;;;;6.63;52.97;99845.16;5029426;28;20044;-54
2022/03/05 09:13:00;;;;;;;70.65;25.52;;;;;;;6.05;53.41;99848.25;5032415;28;20033;-54
2022/03/05 09:15:26;;;;;;;68.88;22.10;;;;;;;5.60;55.59;99852.28;5032423;28;20103;-55
2022/03/05 09:17:51;;;;;;;70.20;23.10;;;;;;;6.77;52.51;99847.88;5031380;28;20486;-52
2022/03/05 09:20:17;;;;;;;63.03;22.60;;;;;;;6.09;53.79;99854.03;5028327;28;20128;-55
2022/03/05 09:22:42;;;;;;;69.63;21.80;;;;;;;5.90;54.35;99857.38;5030132;28;20472;-54
2022/03/05 09:25:08;;;;;;;63.05;22.75;;;;;;;7.22;51.54;99845.47;5035423;28;20075;-53
2022/03/05 09:27:34;;;;;;;64.85;22.33;;;;;;;7.18;51.39;99849.56;5037270;28;20052;-54
2022/03/05 09:29:59;;;;;;;66.85;23.90;;;;;;;6.07;53.79;99858.72;5039513;28;20033;-54
2022/03/05 09:32:25;;;;;;;63.00;23.25;;;;;;;6.60;53.82;99858.91;5027723;28;20033;-54
2022/03/05 09:34:50;;;;;;;68.47;22.75;;;;;;;6.49;52.64;99856.84;5032902;28;20391;-54
2022/03/05 09:37:16;;;;;;;63.53;23.65;;;;;;;6.73;52.58;99857.28;5029448;28;20038;-54
2022/03/05 09:39:41;;;;;;;68.40;22.40;;;;;;;6.74;52.30;99857.09;5036760;28;20044;-54
2022/03/05 09:42:07;;;;;;;67.90;23.33;;;;;;;7.34;50.97;99857.97;5032416;28;20426;-54
2022/03/05 09:44:33;;;;;;;68.38;24.20;;;;;;;6.97;50.83;99862.06;5029691;28;20033;-53
2022/03/05 09:46:59;;;;;;;67.47;23.98;;;;;;;6.81;51.03;99865.09;5028174;28;20460;-55
2022/03/05 09:49:26;;;;;;;64.18;24.13;;;;;;;6.86;52.10;99855.47;5024817;28;20043;-54
2022/03/05 09:51:53;;;;;;;69.55;25.20;;;;;;;6.53;52.10;99858.06;5017841;28;20065;-51
2022/03/05 09:54:18;;;;;;;71.00;22.95;;;;;;;7.17;50.88;99869.25;5029983;28;20029;-53
2022/03/05 09:56:43;;;;;;;63.95;23.48;;;;;;;7.00;52.03;99856.31;5028532;28;20455;-54
2022/03/05 09:59:10;;;;;;;67.53;24.52;;;;;;;7.48;51.00;99844.59;5029500;28;20087;-52
2022/03/05 10:01:35;;;;;;;57.83;22.85;;;;;;;6.59;52.56;99846.63;5028660;28;20037;-52
2022/03/05 10:04:02;;;;;;;66.75;24.23;;;;;;;6.67;53.62;99851.75;5027831;28;20151;-53
2022/03/05 10:06:28;;;;;;;72.30;25.60;;;;;;;6.92;51.02;99851.19;5034763;28;20580;-54
2022/03/05 10:08:55;;;;;;;69.65;24.90;;;;;;;7.13;51.25;99842.16;5036643;28;20033;-54
2022/03/05 10:11:21;;;;;;;61.00;23.67;;;;;;;7.16;51.04;99836.41;5031193;28;20106;-54
2022/03/05 10:13:46;;;;;;;113.15;33.85;;;;;;;7.01;52.16;99836.63;5034765;28;20415;-52
2022/03/05 10:16:32;;;;;;;62.35;24.05;;;;;;;7.77;49.42;99830.00;5034894;28;20037;-54
2022/03/05 10:19:17;;;;;;;67.38;25.05;;;;;;;7.84;49.27;99835.28;5035264;28;20055;-53
2022/03/05 10:21:55;;;;;;;68.78;23.67;;;;;;;7.26;50.28;99836.84;5029884;28;20148;-54
2022/03/05 10:24:22;;;;;;;63.22;23.73;;;;;;;7.98;49.91;99828.88;5037010;28;20095;-53
2022/03/05 10:26:54;;;;;;;72.40;24.73;;;;;;;8.54;47.47;99832.81;5012357;28;20045;-53
2022/03/05 10:29:21;;;;;;;66.18;24.75;;;;;;;7.94;49.48;99833.84;5031714;28;20025;-53
2022/03/05 10:32:06;;;;;;;59.92;23.88;;;;;;;8.91;47.09;99828.44;5035877;28;20045;-53
2022/03/05 10:34:41;;;;;;;61.90;23.08;;;;;;;8.53;47.15;99823.13;5037863;28;20033;-54
2022/03/05 10:37:06;;;;;;;64.30;22.42;;;;;;;8.77;47.28;99822.38;5038554;28;20041;-56
2022/03/05 10:39:31;;;;;;;58.13;22.30;;;;;;;8.11;49.35;99817.34;5040156;28;20021;-52
2022/03/05 10:41:57;;;;;;;58.13;22.88;;;;;;;8.54;47.51;99822.13;5047230;28;20046;-53
2022/03/05 10:44:23;;;;;;;56.78;22.15;;;;;;;8.28;48.69;99818.50;5056122;28;20025;-53
2022/03/05 10:46:57;;;;;;;57.50;22.65;;;;;;;8.86;47.49;99822.91;5030678;28;20049;-55
2022/03/05 10:49:24;;;;;;;54.65;21.83;;;;;;;9.85;44.29;99818.50;5041840;28;20112;-51
2022/03/05 10:52:02;;;;;;;59.38;23.92;;;;;;;8.53;46.83;99818.59;5042048;28;20522;-55
2022/03/05 10:54:41;;;;;;;54.47;22.10;;;;;;;9.01;46.16;99819.91;5032838;28;20095;-56
2022/03/05 10:57:10;;;;;;;51.88;21.20;;;;;;;9.46;45.10;99815.22;5039129;28;20136;-51
2022/03/05 10:59:39;;;;;;;56.67;23.03;;;;;;;8.72;46.63;99808.84;5039018;28;20502;-54
2022/03/05 11:02:05;;;;;;;48.85;21.15;;;;;;;8.98;46.52;99815.00;5037384;28;20029;-53
2022/03/05 11:04:31;;;;;;;65.78;23.00;;;;;;;9.38;45.31;99812.81;5036508;28;20017;-53
2022/03/05 11:06:56;;;;;;;51.40;20.83;;;;;;;8.58;47.55;99808.09;5029658;28;20522;-51
2022/03/05 11:09:22;;;;;;;55.90;21.35;;;;;;;8.39;46.13;99815.19;5044908;28;20022;-51
2022/03/05 11:11:47;;;;;;;52.25;21.65;;;;;;;9.18;44.69;99812.19;5031951;28;20052;-54
2022/03/05 11:14:14;;;;;;;47.95;20.65;;;;;;;8.58;45.86;99802.75;5023810;28;20027;-54
2022/03/05 11:16:40;;;;;;;53.92;22.23;;;;;;;9.12;45.55;99807.72;5036736;28;20525;-53